Portada
METAR-TAF:

METAR-TAF

Aeroports :

Ormond Beach Municipal Airport

Ormond Beach, Florida, Estats Units d'Amèrica

latitud: 29-18-04N, longitud: 081-06-49W, altitud: 9 m

Observació

L'informe es va fer fa 8 hores i 2 minuts, a les 22:50 UTC
Vent 10 kt del Nord amb ràfegues de 15 kt
Temperatura 28°C
Humitat 94%
Pressió 1014 hPa
Visibilitat: 11.3 km
Núvols disperses a una alçada de 2000 ft

METAR: KOMN 152250Z 01010G15KT 7SM SCT020 28/27 A2993 RMK LAST

Hora: 02:52 (06:52 UTC)


TAF: manca

Observacions i pronòstics meteorològics de més de 4000 aeroports (METAR i TAF).

Les estacions disponibles són els punts grocs i vermells al mapa.

Posi el ratolí al punt desitjat per veure el nom de l'estació.

Feu clic per veure les observacions i els pronòstics meteorològics.

Per canviar el mapa: feu clic els botons verds amb una creu de color negre per apropar; al botó verd amb un guió per allunyar la imatge; o en les fletxes verdes per a mapes adjacents.


METAR-TAF: